Time;durP1;ratioP1;P1;durP2;ratioP2;P2;SDS_P1;SDS_P2;PMS_P1;PMS_P2;Temp;Humidity;BMP_temperature;BMP_pressure;BME280_temperature;BME280_humidity;BME280_pressure;Samples;Min_cycle;Max_cycle;Signal;HPM_P1;HPM_P2
2022/03/23 00:01:06;;;;;;;21.58;10.98;;;;;;;4.90;78.48;97845.66;4980066;28;20073;-70
2022/03/23 00:03:32;;;;;;;29.65;10.93;;;;;;;4.89;77.72;97830.72;4978957;28;20044;-71
2022/03/23 00:05:58;;;;;;;22.98;10.65;;;;;;;4.78;80.13;97836.47;4978623;28;20045;-69
2022/03/23 00:08:23;;;;;;;23.52;10.07;;;;;;;4.84;78.87;97840.25;4963173;28;20046;-69
2022/03/23 00:10:48;;;;;;;23.10;10.73;;;;;;;4.88;78.34;97839.69;4977294;28;20053;-71
2022/03/23 00:13:14;;;;;;;19.98;10.77;;;;;;;4.80;80.86;97838.94;4979156;28;20553;-72
2022/03/23 00:15:40;;;;;;;23.38;11.15;;;;;;;4.77;79.77;97841.97;4978889;28;20049;-70
2022/03/23 00:18:06;;;;;;;22.27;11.43;;;;;;;4.68;79.89;97839.38;4978516;28;20042;-70
2022/03/23 00:20:33;;;;;;;24.58;11.27;;;;;;;4.66;83.40;97832.59;4978627;28;20417;-71
2022/03/23 00:22:59;;;;;;;22.50;11.50;;;;;;;4.73;81.76;97842.31;4980593;28;20046;-68
2022/03/23 00:25:26;;;;;;;27.63;10.55;;;;;;;4.71;82.73;97844.31;4978461;28;20401;-69
2022/03/23 00:27:52;;;;;;;24.88;11.55;;;;;;;4.72;82.39;97842.47;4977414;28;20043;-69
2022/03/23 00:30:17;;;;;;;22.70;11.30;;;;;;;4.70;83.33;97845.31;4963585;28;20042;-69
2022/03/23 00:32:43;;;;;;;26.50;11.27;;;;;;;4.65;83.33;97839.72;4978224;28;20054;-71
2022/03/23 00:35:09;;;;;;;20.52;10.88;;;;;;;4.70;82.54;97842.66;4977307;28;20046;-69
2022/03/23 00:37:35;;;;;;;23.45;10.95;;;;;;;4.74;81.01;97838.63;4980912;28;20695;-69
2022/03/23 00:40:01;;;;;;;25.13;12.45;;;;;;;4.81;78.49;97843.25;4978102;28;20117;-72
2022/03/23 00:42:26;;;;;;;23.95;11.65;;;;;;;4.80;80.50;97839.75;4978816;28;20573;-70
2022/03/23 00:44:52;;;;;;;23.63;11.90;;;;;;;4.73;82.69;97841.47;4966144;28;20038;-70
2022/03/23 00:47:17;;;;;;;27.52;13.02;;;;;;;4.59;84.08;97848.41;4977168;28;20061;-70
2022/03/23 00:49:44;;;;;;;24.63;12.23;;;;;;;4.51;85.64;97844.94;4976709;28;20038;-70
2022/03/23 00:52:11;;;;;;;32.90;13.00;;;;;;;4.53;84.17;97850.94;4977978;28;20050;-69
2022/03/23 00:54:37;;;;;;;31.98;13.40;;;;;;;4.52;83.98;97842.16;4965463;28;20596;-70
2022/03/23 00:57:06;;;;;;;27.13;13.32;;;;;;;4.37;84.88;97842.09;4977331;28;20042;-69
2022/03/23 00:59:32;;;;;;;25.08;11.82;;;;;;;4.47;83.47;97845.31;4978097;28;20623;-70
2022/03/23 01:01:58;;;;;;;22.63;10.85;;;;;;;4.62;80.62;97850.69;4962369;28;20125;-72
2022/03/23 01:04:24;;;;;;;22.48;10.70;;;;;;;4.59;82.81;97848.41;4976237;28;20552;-72
2022/03/23 01:06:53;;;;;;;26.30;11.18;;;;;;;4.51;82.74;97847.59;4979336;28;20071;-71
2022/03/23 01:09:23;;;;;;;21.65;11.55;;;;;;;4.49;81.84;97845.13;4980302;28;20042;-70
2022/03/23 01:11:53;;;;;;;23.70;11.23;;;;;;;4.49;85.19;97842.47;4983474;28;20046;-70
2022/03/23 01:14:22;;;;;;;19.97;11.37;;;;;;;4.40;83.86;97847.03;4966822;28;20767;-72
2022/03/23 01:16:49;;;;;;;22.05;10.52;;;;;;;4.44;80.93;97836.91;4983122;28;20621;-73
2022/03/23 01:19:15;;;;;;;24.30;12.23;;;;;;;4.39;83.17;97845.38;4980681;28;20033;-70
2022/03/23 01:21:40;;;;;;;20.23;11.07;;;;;;;4.32;88.34;97841.78;4983607;28;20042;-70
2022/03/23 01:24:06;;;;;;;32.13;13.25;;;;;;;4.26;86.66;97828.41;4980539;28;20034;-73
2022/03/23 01:26:32;;;;;;;26.42;12.48;;;;;;;4.23;87.64;97844.66;4981726;28;20497;-70
2022/03/23 01:29:00;;;;;;;24.98;11.98;;;;;;;4.17;86.91;97840.88;4966237;28;20041;-72
2022/03/23 01:31:27;;;;;;;22.25;11.65;;;;;;;4.05;88.92;97845.75;4981022;28;20539;-70
2022/03/23 01:33:59;;;;;;;21.77;11.68;;;;;;;3.99;89.28;97833.19;4982662;28;20137;-71
2022/03/23 01:36:31;;;;;;;21.02;12.07;;;;;;;3.86;89.97;97839.03;4980770;28;20049;-70
2022/03/23 01:38:57;;;;;;;20.55;11.43;;;;;;;3.87;87.62;97839.84;4980526;28;20249;-72
2022/03/23 01:41:23;;;;;;;23.67;11.07;;;;;;;3.84;90.90;97830.44;4981165;28;20030;-70
2022/03/23 01:43:49;;;;;;;26.35;11.80;;;;;;;3.91;88.30;97828.75;4980323;28;20038;-70
2022/03/23 01:46:17;;;;;;;23.65;10.90;;;;;;;3.98;86.60;97831.53;4983768;28;20574;-70
2022/03/23 01:48:43;;;;;;;24.70;11.85;;;;;;;4.03;86.11;97834.47;4979896;28;20053;-73
2022/03/23 01:51:09;;;;;;;20.13;11.25;;;;;;;4.03;86.60;97823.06;4980959;28;20042;-71
2022/03/23 01:53:35;;;;;;;23.17;11.52;;;;;;;4.06;86.58;97828.03;4965885;28;20050;-72
2022/03/23 01:56:01;;;;;;;22.60;10.95;;;;;;;3.96;87.72;97817.63;4965100;28;20039;-72
2022/03/23 01:58:28;;;;;;;21.02;11.10;;;;;;;3.98;87.19;97820.94;4980098;28;20042;-72
2022/03/23 02:00:53;;;;;;;21.90;11.45;;;;;;;3.96;88.54;97816.81;4982128;28;20129;-70
2022/03/23 02:03:19;;;;;;;26.20;12.07;;;;;;;4.01;87.07;97825.06;4968976;28;20339;-72
2022/03/23 02:05:47;;;;;;;21.10;11.15;;;;;;;4.02;85.60;97827.53;4970171;28;20118;-71
2022/03/23 02:08:13;;;;;;;21.83;11.32;;;;;;;4.03;86.18;97828.34;4961453;28;20042;-72
2022/03/23 02:10:41;;;;;;;21.00;11.02;;;;;;;4.01;86.89;97825.06;4970929;28;20046;-69
2022/03/23 02:13:10;;;;;;;21.42;11.18;;;;;;;3.99;86.41;97821.78;4966433;28;20477;-70
2022/03/23 02:15:36;;;;;;;22.15;11.50;;;;;;;4.04;85.44;97824.69;4964248;28;20034;-69
2022/03/23 02:18:01;;;;;;;23.48;11.55;;;;;;;4.01;85.72;97814.47;4979917;28;20041;-72
2022/03/23 02:20:27;;;;;;;19.75;10.45;;;;;;;3.97;86.35;97810.50;4965937;28;20096;-72
2022/03/23 02:22:54;;;;;;;21.50;11.57;;;;;;;3.98;87.17;97820.13;4984796;28;20034;-70
2022/03/23 02:25:28;;;;;;;21.23;11.25;;;;;;;3.99;87.22;97817.28;4980280;28;20046;-71
2022/03/23 02:27:55;;;;;;;19.23;11.05;;;;;;;4.01;86.27;97809.16;4981115;28;20050;-70
2022/03/23 02:30:21;;;;;;;25.20;13.77;;;;;;;3.97;85.18;97810.50;4979406;28;20237;-72
2022/03/23 02:32:48;;;;;;;21.15;11.75;;;;;;;3.95;86.18;97815.97;4978157;28;20069;-70
2022/03/23 02:35:15;;;;;;;21.02;10.75;;;;;;;3.94;85.79;97816.16;4977163;28;20035;-72
2022/03/23 02:37:41;;;;;;;21.25;10.98;;;;;;;3.94;86.13;97813.50;4979374;28;20072;-72
2022/03/23 02:40:09;;;;;;;21.67;10.77;;;;;;;3.92;86.05;97819.00;4978502;28;20058;-71
2022/03/23 02:42:36;;;;;;;22.20;11.70;;;;;;;3.89;86.65;97819.31;4980907;28;20829;-69
2022/03/23 02:45:01;;;;;;;25.45;11.30;;;;;;;3.89;86.44;97816.66;4978576;28;20041;-73
2022/03/23 02:47:27;;;;;;;21.20;10.43;;;;;;;3.87;87.52;97821.31;4979071;28;20057;-71
2022/03/23 02:49:52;;;;;;;17.75;10.90;;;;;;;3.84;87.59;97813.72;4963048;28;20058;-71
2022/03/23 02:52:18;;;;;;;20.42;10.60;;;;;;;3.78;87.94;97812.59;4978646;28;20351;-70
2022/03/23 03:03:26;;;;;;;21.05;10.80;;;;;;;3.71;88.86;97822.22;4980033;28;20045;-69
2022/03/23 03:05:51;;;;;;;19.38;11.30;;;;;;;3.64;89.20;97824.72;4979080;28;20039;-73
2022/03/23 03:11:01;;;;;;;21.33;10.88;;;;;;;3.70;86.96;97825.03;4979212;28;20500;-73
2022/03/23 03:13:29;;;;;;;20.77;10.88;;;;;;;3.71;86.54;97827.50;4982093;28;20379;-71
2022/03/23 03:15:59;;;;;;;18.52;10.80;;;;;;;3.63;88.73;97815.13;4979968;28;20073;-69
2022/03/23 03:18:25;;;;;;;19.60;10.95;;;;;;;3.68;87.65;97824.41;4977367;28;20052;-70
2022/03/23 03:20:50;;;;;;;27.70;11.60;;;;;;;3.60;88.28;97815.50;4981610;28;20546;-71
2022/03/23 03:23:16;;;;;;;22.98;11.20;;;;;;;3.69;86.75;97826.03;4978751;28;20030;-69
2022/03/23 03:25:41;;;;;;;20.10;10.32;;;;;;;3.61;87.87;97824.25;4980694;28;20043;-70
2022/03/23 03:28:07;;;;;;;20.50;10.95;;;;;;;3.58;87.12;97829.88;4971707;28;20109;-73
2022/03/23 03:30:32;;;;;;;19.90;10.13;;;;;;;3.59;85.67;97824.44;4971600;28;20042;-70
2022/03/23 03:32:57;;;;;;;22.70;11.15;;;;;;;3.59;86.88;97836.84;4976780;28;20052;-70
2022/03/23 03:35:23;;;;;;;21.77;11.55;;;;;;;3.58;85.89;97828.06;4975043;28;20042;-71
2022/03/23 03:37:48;;;;;;;20.90;10.77;;;;;;;3.59;85.65;97832.38;4974710;28;20042;-72
2022/03/23 03:40:14;;;;;;;19.60;10.63;;;;;;;3.57;84.30;97831.69;4961058;28;20541;-71
2022/03/23 03:42:39;;;;;;;20.85;11.25;;;;;;;3.54;86.19;97836.50;4974291;28;20513;-70
2022/03/23 03:45:06;;;;;;;21.83;11.50;;;;;;;3.50;86.08;97838.69;4975076;28;20343;-70
2022/03/23 03:47:32;;;;;;;22.48;10.63;;;;;;;3.47;87.09;97831.06;4977718;28;20042;-72
2022/03/23 03:49:57;;;;;;;21.10;10.82;;;;;;;3.38;89.48;97841.84;4975143;28;20114;-69
2022/03/23 03:52:23;;;;;;;20.35;10.85;;;;;;;3.29;90.04;97836.59;4977486;28;20034;-69
2022/03/23 03:54:48;;;;;;;18.95;10.88;;;;;;;3.20;91.41;97829.66;4973782;28;20069;-73
2022/03/23 03:57:14;;;;;;;21.77;10.45;;;;;;;3.15;93.28;97837.28;4970529;28;20133;-73
2022/03/23 03:59:39;;;;;;;17.15;10.32;;;;;;;3.11;91.28;97835.13;4971622;28;20390;-69
2022/03/23 04:02:05;;;;;;;21.52;11.55;;;;;;;3.14;89.99;97846.19;4973297;28;20565;-71
2022/03/23 04:04:31;;;;;;;25.85;11.27;;;;;;;3.17;89.75;97837.91;4973575;28;20422;-72
2022/03/23 04:06:57;;;;;;;19.60;11.18;;;;;;;3.17;90.87;97842.38;4974509;28;20498;-69
2022/03/23 04:09:23;;;;;;;20.00;10.07;;;;;;;3.21;90.00;97838.44;4975465;28;20038;-73
2022/03/23 04:11:48;;;;;;;20.15;10.63;;;;;;;3.09;91.06;97832.66;4971665;28;20105;-70
2022/03/23 04:14:15;;;;;;;18.48;10.50;;;;;;;3.04;94.50;97843.75;4973440;28;20520;-70
2022/03/23 04:16:41;;;;;;;18.20;10.55;;;;;;;2.99;93.73;97842.59;4974688;28;20049;-73
2022/03/23 04:19:06;;;;;;;20.83;10.90;;;;;;;3.04;89.73;97827.88;4959198;28;20030;-69
2022/03/23 04:21:33;;;;;;;16.13;10.18;;;;;;;3.13;88.31;97841.91;4970344;28;20563;-71
2022/03/23 04:23:59;;;;;;;19.42;11.00;;;;;;;3.24;86.08;97840.72;4972265;28;20324;-73
2022/03/23 04:26:24;;;;;;;20.73;10.07;;;;;;;3.26;87.31;97852.78;4971133;28;20054;-73
2022/03/23 04:28:51;;;;;;;21.02;10.63;;;;;;;3.22;89.22;97848.84;4977985;28;20073;-72
2022/03/23 04:31:16;;;;;;;17.60;10.25;;;;;;;3.22;89.68;97843.53;4977285;28;20035;-71
2022/03/23 04:33:42;;;;;;;20.73;10.40;;;;;;;3.22;88.34;97843.53;4981608;28;20100;-72
2022/03/23 04:36:08;;;;;;;25.08;10.55;;;;;;;3.18;89.98;97844.88;4978601;28;20066;-69
2022/03/23 04:38:33;;;;;;;16.35;10.20;;;;;;;3.16;89.78;97846.03;4976542;28;20034;-71
2022/03/23 04:40:59;;;;;;;21.05;10.88;;;;;;;3.10;88.39;97846.69;4976460;28;20066;-71
2022/03/23 04:43:24;;;;;;;19.70;11.88;;;;;;;3.09;87.72;97845.88;4977180;28;20225;-69
2022/03/23 04:45:50;;;;;;;20.02;11.45;;;;;;;3.01;88.20;97838.78;4982906;28;20047;-69
2022/03/23 04:48:15;;;;;;;29.02;10.50;;;;;;;3.09;89.13;97851.16;4979214;28;20042;-71
2022/03/23 04:50:41;;;;;;;22.80;12.45;;;;;;;3.12;87.41;97852.66;4983266;28;20531;-72
2022/03/23 04:53:06;;;;;;;19.27;10.60;;;;;;;3.07;87.20;97859.28;4980172;28;20401;-70
2022/03/23 04:55:32;;;;;;;19.65;9.82;;;;;;;3.11;86.71;97857.09;4981263;28;20100;-70
2022/03/23 04:58:00;;;;;;;19.92;9.93;;;;;;;3.06;87.37;97849.69;4983647;28;20056;-71
2022/03/23 05:00:26;;;;;;;22.23;10.70;;;;;;;2.99;88.03;97855.81;4979305;28;20469;-70
2022/03/23 05:02:52;;;;;;;20.67;9.90;;;;;;;2.98;88.11;97856.81;4981295;28;20478;-69
2022/03/23 05:05:18;;;;;;;17.35;10.07;;;;;;;2.96;88.05;97848.22;4981756;28;20509;-70
2022/03/23 05:07:44;;;;;;;22.23;10.85;;;;;;;2.91;89.67;97859.28;4983848;28;20153;-68
2022/03/23 05:10:12;;;;;;;21.85;10.07;;;;;;;2.90;90.34;97857.63;4982471;28;20255;-73
2022/03/23 05:12:38;;;;;;;19.45;11.05;;;;;;;2.93;87.83;97859.94;4982396;28;20416;-70
2022/03/23 05:15:06;;;;;;;22.48;11.57;;;;;;;2.94;88.20;97863.41;4983985;28;20073;-72
2022/03/23 05:17:35;;;;;;;24.25;11.50;;;;;;;2.90;88.57;97862.09;4984887;28;20047;-71
2022/03/23 05:20:01;;;;;;;19.90;11.10;;;;;;;2.87;91.28;97859.78;4982867;28;20042;-73
2022/03/23 05:22:27;;;;;;;20.92;10.93;;;;;;;2.84;88.79;97863.59;4980766;28;20067;-69
2022/03/23 05:24:53;;;;;;;21.88;11.35;;;;;;;2.86;90.38;97861.59;4982734;28;20045;-69
2022/03/23 05:27:18;;;;;;;20.55;10.60;;;;;;;2.89;88.06;97856.00;4976944;28;20055;-70
2022/03/23 05:29:44;;;;;;;17.15;10.65;;;;;;;2.94;89.10;97864.22;4977862;28;20145;-69
2022/03/23 05:32:16;;;;;;;21.42;11.15;;;;;;;2.96;88.90;97850.88;4960141;28;20628;-70
2022/03/23 05:34:45;;;;;;;18.65;11.27;;;;;;;2.95;87.78;97862.41;4977099;28;20034;-70
2022/03/23 05:37:12;;;;;;;18.90;10.95;;;;;;;2.89;88.38;97857.81;4972831;28;20446;-73
2022/03/23 05:39:39;;;;;;;25.35;11.25;;;;;;;3.04;87.38;97859.63;4976849;28;20433;-70
2022/03/23 05:42:05;;;;;;;21.10;11.15;;;;;;;2.98;88.29;97849.69;4971874;28;20034;-73
2022/03/23 05:44:31;;;;;;;19.92;10.60;;;;;;;3.07;87.25;97856.63;4975284;28;20077;-69
2022/03/23 05:46:56;;;;;;;21.88;10.98;;;;;;;3.11;88.06;97864.22;4962041;28;20629;-69
2022/03/23 05:49:22;;;;;;;22.48;11.27;;;;;;;3.11;87.10;97857.09;4957634;28;20038;-70
2022/03/23 05:51:47;;;;;;;24.33;11.60;;;;;;;3.13;87.62;97867.53;4975627;28;20469;-70
2022/03/23 05:54:13;;;;;;;20.23;11.27;;;;;;;3.16;87.60;97862.72;4962204;28;20108;-70
2022/03/23 05:56:38;;;;;;;21.67;11.10;;;;;;;3.12;86.92;97865.91;4975889;28;20448;-71
2022/03/23 05:59:04;;;;;;;23.63;10.98;;;;;;;3.18;87.00;97867.84;4976093;28;20149;-71
2022/03/23 06:01:31;;;;;;;18.50;10.88;;;;;;;3.22;86.93;97875.28;4956078;28;20042;-68
2022/03/23 06:03:56;;;;;;;22.17;11.30;;;;;;;3.27;87.17;97870.34;4973709;28;20050;-70
2022/03/23 06:06:22;;;;;;;18.67;11.00;;;;;;;3.28;88.63;97869.34;4971874;28;20030;-74
2022/03/23 06:08:47;;;;;;;26.80;10.98;;;;;;;3.27;90.20;97872.16;4971986;28;20050;-69
2022/03/23 06:11:13;;;;;;;20.58;11.10;;;;;;;3.29;88.61;97878.91;4974311;28;20493;-74
2022/03/23 06:13:39;;;;;;;19.73;10.82;;;;;;;3.32;89.65;97872.47;4977624;28;20042;-69
2022/03/23 06:16:06;;;;;;;17.23;10.85;;;;;;;3.38;88.01;97878.91;4972269;28;20359;-70
2022/03/23 06:18:32;;;;;;;19.02;11.00;;;;;;;3.44;89.29;97879.06;4974569;28;20042;-70
2022/03/23 06:20:58;;;;;;;24.95;10.05;;;;;;;3.49;87.86;97879.34;4975361;28;20053;-70
2022/03/23 06:23:25;;;;;;;19.38;10.52;;;;;;;3.58;87.93;97877.50;4970848;28;20054;-70
2022/03/23 06:25:50;;;;;;;19.95;10.63;;;;;;;3.68;87.29;97872.88;4975540;28;20445;-70
2022/03/23 06:28:16;;;;;;;22.52;11.32;;;;;;;3.76;85.45;97878.13;4973835;28;20093;-73
2022/03/23 06:30:42;;;;;;;17.98;10.32;;;;;;;3.85;86.53;97882.41;4978464;28;20047;-72
2022/03/23 06:33:07;;;;;;;21.90;11.15;;;;;;;3.88;87.95;97881.22;4977977;28;20137;-73
2022/03/23 06:35:33;;;;;;;23.35;11.63;;;;;;;3.96;87.16;97886.50;4980775;28;20061;-71
2022/03/23 06:37:59;;;;;;;24.80;11.85;;;;;;;4.04;87.66;97882.97;4978049;28;20230;-69
2022/03/23 06:40:24;;;;;;;18.25;11.00;;;;;;;4.13;86.33;97882.78;4976854;28;20038;-68
2022/03/23 06:42:50;;;;;;;19.42;10.77;;;;;;;4.28;86.47;97888.19;4974153;28;20034;-72
2022/03/23 06:45:15;;;;;;;19.08;10.65;;;;;;;4.43;84.62;97893.53;4978454;28;20445;-73
2022/03/23 06:47:41;;;;;;;19.35;10.43;;;;;;;4.51;84.31;97880.25;4980497;28;20088;-71
2022/03/23 06:50:10;;;;;;;19.75;10.45;;;;;;;4.64;84.71;97900.88;4975324;28;20038;-70
2022/03/23 06:52:35;;;;;;;20.35;12.27;;;;;;;4.78;85.13;97886.03;4978566;28;20033;-69
2022/03/23 06:55:01;;;;;;;18.95;10.23;;;;;;;4.86;81.84;97892.09;4977894;28;20045;-70
2022/03/23 06:57:26;;;;;;;26.17;12.57;;;;;;;4.94;79.41;97896.53;4963344;28;20054;-71
2022/03/23 06:59:52;;;;;;;21.98;11.85;;;;;;;5.03;81.94;97895.44;4979915;28;20088;-73
2022/03/23 07:02:17;;;;;;;19.60;12.00;;;;;;;5.15;85.53;97899.34;4979123;28;20054;-70
2022/03/23 07:04:43;;;;;;;26.08;11.52;;;;;;;5.21;80.20;97889.81;4977668;28;20042;-72
2022/03/23 07:07:08;;;;;;;19.80;11.32;;;;;;;5.37;78.29;97896.81;4975847;28;20432;-69
2022/03/23 07:09:38;;;;;;;20.17;11.95;;;;;;;5.54;71.33;97893.84;4979645;28;20389;-71
2022/03/23 07:12:08;;;;;;;18.85;10.73;;;;;;;5.70;77.34;97895.50;4976026;28;20038;-73
2022/03/23 07:14:36;;;;;;;20.25;10.82;;;;;;;5.81;77.19;97895.03;4980901;28;20131;-71
2022/03/23 07:17:03;;;;;;;20.55;10.90;;;;;;;6.00;81.28;97914.13;4977198;28;20073;-70
2022/03/23 07:19:29;;;;;;;22.15;10.77;;;;;;;6.25;78.13;97901.34;4977703;28;20391;-71
2022/03/23 07:21:54;;;;;;;18.13;10.27;;;;;;;6.51;67.09;97904.31;4980668;28;20096;-69
2022/03/23 07:24:20;;;;;;;19.80;10.05;;;;;;;6.76;65.68;97904.78;4979855;28;20069;-69
2022/03/23 07:26:46;;;;;;;19.92;10.85;;;;;;;6.96;62.85;97899.66;4979991;28;20281;-70
2022/03/23 07:29:13;;;;;;;23.42;12.18;;;;;;;6.92;65.95;97911.69;4977678;28;20377;-70
2022/03/23 07:31:39;;;;;;;25.10;12.38;;;;;;;6.79;67.57;97908.91;4979788;28;20137;-71
2022/03/23 07:34:04;;;;;;;24.25;11.40;;;;;;;6.75;64.46;97911.13;4980515;28;20052;-68
2022/03/23 07:36:30;;;;;;;24.38;12.32;;;;;;;6.77;66.23;97910.94;4980034;28;20042;-71
2022/03/23 07:38:56;;;;;;;16.65;10.23;;;;;;;6.94;57.20;97917.66;4979330;28;20034;-69
2022/03/23 07:41:22;;;;;;;19.15;10.60;;;;;;;7.42;53.17;97908.06;4978405;28;20340;-70
2022/03/23 07:43:49;;;;;;;20.20;10.68;;;;;;;7.80;53.02;97910.38;4981576;28;20478;-70
2022/03/23 07:46:15;;;;;;;21.10;10.10;;;;;;;7.90;53.46;97910.03;4964622;28;20050;-72
2022/03/23 07:48:40;;;;;;;22.08;9.93;;;;;;;8.03;52.50;97912.78;4979837;28;20136;-69
2022/03/23 07:51:06;;;;;;;20.38;10.43;;;;;;;8.16;52.45;97904.00;4977377;28;20459;-71
2022/03/23 07:53:35;;;;;;;20.88;10.77;;;;;;;8.34;50.19;97904.31;4980049;28;20410;-72
2022/03/23 07:56:00;;;;;;;21.25;10.77;;;;;;;8.45;48.55;97906.41;4981209;28;20463;-71
2022/03/23 07:58:27;;;;;;;18.88;9.80;;;;;;;8.60;46.76;97908.94;4979789;28;20117;-70
2022/03/23 08:00:52;;;;;;;19.00;9.95;;;;;;;8.64;48.99;97912.88;4960241;28;20051;-70
2022/03/23 08:03:18;;;;;;;20.02;10.45;;;;;;;8.76;48.38;97908.56;4961214;28;20089;-70
2022/03/23 08:05:43;;;;;;;17.10;10.48;;;;;;;8.96;47.40;97907.81;4961520;28;20050;-72
2022/03/23 08:08:10;;;;;;;25.92;10.60;;;;;;;9.10;47.41;97910.25;4959156;28;20034;-72
2022/03/23 08:10:41;;;;;;;18.40;9.75;;;;;;;9.02;47.57;97912.31;4959570;28;20441;-71
2022/03/23 08:13:08;;;;;;;;;;;;;;;9.05;50.30;97914.59;4957898;28;20039;-69
2022/03/23 08:15:35;;;;;;;22.95;11.57;;;;;;;8.98;49.94;97922.59;4960655;28;19925;-73
2022/03/23 08:18:00;;;;;;;24.38;12.57;;;;;;;9.00;56.26;97919.69;4961353;28;20410;-69
2022/03/23 08:20:38;;;;;;;20.88;11.40;;;;;;;9.09;52.69;97921.16;4957885;28;20043;-70
2022/03/23 08:23:08;;;;;;;21.95;10.38;;;;;;;9.11;49.14;97909.25;4958677;28;20469;-70
2022/03/23 08:25:41;;;;;;;20.67;10.45;;;;;;;9.21;46.77;97912.34;4958817;28;20051;-69
2022/03/23 08:28:07;;;;;;;16.88;10.18;;;;;;;9.30;47.41;97910.28;4959251;28;20046;-71
2022/03/23 08:30:33;;;;;;;23.25;10.77;;;;;;;9.40;48.58;97909.88;4960191;28;20785;-72
2022/03/23 08:32:59;;;;;;;22.48;11.35;;;;;;;9.55;48.33;97913.16;4963995;28;20446;-69
2022/03/23 08:35:25;;;;;;;19.35;10.75;;;;;;;9.67;45.41;97903.50;4962087;28;20065;-69
2022/03/23 08:37:51;;;;;;;18.80;11.48;;;;;;;9.80;44.11;97909.84;4960930;28;20071;-73
2022/03/23 08:40:17;;;;;;;20.42;11.40;;;;;;;9.89;44.20;97911.28;4961373;28;20109;-71
2022/03/23 08:42:43;;;;;;;21.67;11.52;;;;;;;9.94;43.30;97912.28;4958018;28;20517;-71
2022/03/23 08:45:09;;;;;;;22.00;10.90;;;;;;;10.07;43.96;97910.63;4961017;28;20098;-69
2022/03/23 08:47:35;;;;;;;21.95;11.65;;;;;;;10.26;43.62;97912.44;4961868;28;20793;-70
2022/03/23 08:50:03;;;;;;;21.52;12.00;;;;;;;10.46;44.19;97910.53;4958417;28;20043;-69
2022/03/23 08:52:29;;;;;;;24.65;12.00;;;;;;;10.63;42.18;97912.72;4959118;28;20046;-69
2022/03/23 08:54:55;;;;;;;17.90;10.82;;;;;;;10.72;42.23;97909.56;4960302;28;20401;-72
2022/03/23 08:57:22;;;;;;;18.95;11.82;;;;;;;11.03;44.05;97906.09;4955821;28;20455;-74
2022/03/23 08:59:48;;;;;;;31.95;12.68;;;;;;;11.17;43.35;97904.16;4959868;28;20681;-71
2022/03/23 09:02:14;;;;;;;23.35;13.38;;;;;;;11.28;42.58;97906.09;4958273;28;20113;-71
2022/03/23 09:04:40;;;;;;;23.77;13.20;;;;;;;11.47;40.25;97898.16;4961356;28;20326;-71
2022/03/23 09:07:05;;;;;;;30.70;14.70;;;;;;;11.64;42.33;97904.59;4960413;28;20041;-70
2022/03/23 09:09:31;;;;;;;25.25;14.60;;;;;;;11.77;45.45;97906.34;4960793;28;20449;-71
2022/03/23 09:11:56;;;;;;;23.33;12.52;;;;;;;11.97;45.23;97909.66;4958938;28;20371;-70
2022/03/23 09:14:22;;;;;;;23.02;12.95;;;;;;;12.07;40.72;97903.81;4961232;28;20046;-72
2022/03/23 09:16:47;;;;;;;27.52;13.02;;;;;;;12.22;43.31;97910.44;4960810;28;20182;-70
2022/03/23 09:19:19;;;;;;;19.70;11.32;;;;;;;12.21;41.57;97905.28;4958551;28;20589;-70
2022/03/23 09:21:48;;;;;;;28.35;13.23;;;;;;;12.29;46.97;97904.97;4962641;28;20504;-71
2022/03/23 09:24:15;;;;;;;20.52;12.38;;;;;;;12.43;45.79;97902.97;4963293;28;20121;-72
2022/03/23 09:26:41;;;;;;;22.65;12.80;;;;;;;12.51;46.13;97914.22;4960320;28;20128;-72
2022/03/23 09:29:07;;;;;;;22.38;11.98;;;;;;;12.66;42.40;97899.59;4954400;28;20727;-72
2022/03/23 09:31:34;;;;;;;23.00;11.77;;;;;;;12.87;42.73;97906.34;4930219;28;20168;-72
2022/03/23 09:34:02;;;;;;;19.52;10.73;;;;;;;13.00;39.26;97898.91;4957545;28;20374;-71
2022/03/23 09:39:13;;;;;;;22.90;11.68;;;;;;;13.12;36.70;97907.00;4949010;28;20030;-71
2022/03/23 09:41:39;;;;;;;14.98;9.77;;;;;;;13.25;43.66;97903.34;4954670;28;20438;-71
2022/03/23 09:44:05;;;;;;;18.63;10.57;;;;;;;13.21;34.96;97889.53;4953782;28;20389;-71
2022/03/23 09:46:32;;;;;;;16.60;9.10;;;;;;;13.31;40.07;97889.78;4958153;28;20097;-71
2022/03/23 09:48:58;;;;;;;22.85;10.90;;;;;;;13.47;35.14;97896.38;4954653;28;20051;-71
2022/03/23 09:51:25;;;;;;;20.88;11.27;;;;;;;13.67;36.88;97893.31;4956298;28;20085;-72
2022/03/23 09:53:52;;;;;;;19.23;10.80;;;;;;;13.73;36.80;97888.91;4958600;28;20047;-70
2022/03/23 09:56:18;;;;;;;17.40;10.73;;;;;;;13.81;36.18;97896.63;4954266;28;20039;-71
2022/03/23 09:58:44;;;;;;;27.55;11.77;;;;;;;13.72;34.36;97893.47;4957973;28;20069;-72
2022/03/23 10:01:29;;;;;;;21.25;12.55;;;;;;;13.93;32.65;97895.56;4959087;28;20137;-70
2022/03/23 10:04:45;;;;;;;22.85;11.55;;;;;;;14.12;40.35;97901.63;4955191;28;20051;-72
2022/03/23 10:07:29;;;;;;;22.02;10.88;;;;;;;14.20;33.64;97895.88;4954575;28;20046;-72
2022/03/23 10:10:14;;;;;;;20.50;11.07;;;;;;;14.43;36.52;97897.69;4958941;28;20042;-71
2022/03/23 10:13:17;;;;;;;20.50;11.43;;;;;;;14.70;34.09;97894.47;4927866;28;20059;-72
2022/03/23 10:16:17;;;;;;;18.67;10.13;;;;;;;14.91;37.04;97901.09;4951069;28;20169;-72
2022/03/23 10:18:49;;;;;;;18.63;11.05;;;;;;;15.15;39.24;97899.09;4955514;28;20556;-71
2022/03/23 10:21:14;;;;;;;22.60;11.90;;;;;;;15.53;39.06;97893.00;4955695;28;20153;-71
2022/03/23 10:24:02;;;;;;;17.63;10.00;;;;;;;15.53;31.27;97890.31;4960724;28;20441;-72
2022/03/23 10:26:30;;;;;;;22.05;11.88;;;;;;;15.70;31.37;97884.94;4957227;28;20546;-72
2022/03/23 10:28:58;;;;;;;14.95;9.32;;;;;;;16.39;40.78;97883.47;4960725;28;20067;-71
2022/03/23 10:31:25;;;;;;;16.65;10.75;;;;;;;17.45;36.73;97887.59;4929599;28;20043;-71
2022/03/23 10:34:07;;;;;;;20.38;11.52;;;;;;;18.49;31.35;97876.06;4961141;28;20070;-71
2022/03/23 10:36:34;;;;;;;16.70;10.45;;;;;;;19.82;25.77;97882.56;4964172;28;20565;-71
2022/03/23 10:39:03;;;;;;;17.90;10.63;;;;;;;20.17;24.66;97879.00;4960767;28;20176;-72
2022/03/23 10:41:30;;;;;;;17.77;11.18;;;;;;;20.91;23.99;97862.94;4958263;28;20465;-72
2022/03/23 10:43:55;;;;;;;20.35;11.27;;;;;;;21.98;22.07;97871.09;4962587;28;20215;-71
2022/03/23 10:46:21;;;;;;;17.45;10.27;;;;;;;22.37;21.84;97868.25;4958117;28;20113;-71
2022/03/23 10:48:52;;;;;;;20.38;10.80;;;;;;;22.78;21.29;97862.28;4957742;28;20066;-71
2022/03/23 10:51:32;;;;;;;25.30;11.43;;;;;;;24.07;20.18;97863.56;4960149;28;20170;-72
2022/03/23 10:53:59;;;;;;;16.50;9.90;;;;;;;23.34;20.75;97866.97;4958569;28;20047;-73
2022/03/23 10:56:40;;;;;;;20.52;12.32;;;;;;;24.44;19.45;97853.59;4959804;28;20446;-71
2022/03/23 10:59:17;;;;;;;;;;;;;;;24.55;19.65;97865.94;4958386;28;20125;-71
2022/03/23 11:01:58;;;;;;;17.75;10.60;;;;;;;24.42;19.18;97864.81;4961516;28;20459;-71
2022/03/23 11:04:28;;;;;;;22.15;11.23;;;;;;;25.17;19.42;97869.00;4962922;28;20125;-73
2022/03/23 11:06:54;;;;;;;18.50;12.05;;;;;;;25.79;18.26;97858.19;4960336;28;20050;-71
2022/03/23 11:18:09;;;;;;;23.58;12.30;;;;;;;26.80;22.30;97852.97;4964925;28;20049;-73
2022/03/23 11:20:43;;;;;;;15.52;8.55;;;;;;;25.95;16.66;97866.03;4961517;28;20371;-71
2022/03/23 11:23:19;;;;;;;21.15;10.07;;;;;;;26.88;19.32;97847.50;4962300;28;20049;-71
2022/03/23 11:25:46;;;;;;;15.20;10.23;;;;;;;29.34;16.54;97846.91;4967480;28;20066;-72
2022/03/23 11:28:14;;;;;;;18.85;11.57;;;;;;;29.99;16.19;97835.44;4957429;28;20078;-71
2022/03/23 11:30:41;;;;;;;20.13;9.73;;;;;;;31.00;16.86;97835.59;4960184;28;20053;-73
2022/03/23 11:33:09;;;;;;;20.95;10.77;;;;;;;31.57;17.57;97837.25;4957591;28;20031;-73
2022/03/23 11:35:37;;;;;;;18.15;10.93;;;;;;;33.28;14.88;97824.09;4963853;28;20057;-71
2022/03/23 11:38:08;;;;;;;16.35;9.48;;;;;;;31.87;13.12;97832.97;4964130;28;20043;-72
2022/03/23 11:40:34;;;;;;;17.73;9.77;;;;;;;32.67;14.20;97831.03;4962773;28;20043;-72
2022/03/23 11:43:01;;;;;;;16.48;10.13;;;;;;;33.15;13.24;97821.47;4958498;28;20038;-72
2022/03/23 11:45:26;;;;;;;19.33;10.10;;;;;;;32.70;12.65;97825.59;4932144;28;20506;-72
2022/03/23 11:47:58;;;;;;;15.02;9.50;;;;;;;32.10;13.05;97818.53;4270541;28;9999954;-72